Time;durP1;ratioP1;P1;durP2;ratioP2;P2;SDS_P1;SDS_P2;PMS_P1;PMS_P2;Temp;Humidity;BMP_temperature;BMP_pressure;BME280_temperature;BME280_humidity;BME280_pressure;Samples;Min_cycle;Max_cycle;Signal;HPM_P1;HPM_P2
2022/01/29 07:00:20;;;;;;;5.13;2.22;;;;;;;;;;5804415;23;20024;-83
2022/01/29 07:02:46;;;;;;;5.72;2.55;;;;;;;;;;4821134;29;20050;-80
2022/01/29 07:05:13;;;;;;;7.47;2.55;;;;;;;;;;4818410;29;20046;-81
2022/01/29 07:07:40;;;;;;;6.13;2.60;;;;;;;;;;4819695;29;20526;-81
2022/01/29 07:10:09;;;;;;;7.43;2.95;;;;;;;;;;4818533;29;20083;-83
2022/01/29 07:12:39;;;;;;;;;;;;;;;;;;4819427;29;20103;-83
2022/01/29 07:15:09;;;;;;;;;;;;;;;;;;4805222;29;20046;-83
2022/01/29 07:17:36;;;;;;;;;;;;;;;;;;4818793;29;20275;-84
2022/01/29 07:20:03;;;;;;;;;;;;;;;;;;4819896;29;19925;-85
2022/01/29 07:22:30;;;;;;;;;;;;;;;;;;4818937;29;19925;-85
2022/01/29 07:24:56;;;;;;;;;;;;;;;;;;4819587;29;20407;-84
2022/01/29 07:27:23;;;;;;;;;;;;;;;;;;4819713;29;19954;-84
2022/01/29 07:29:49;;;;;;;;;;;;;;;;;;4820178;29;19929;-84
2022/01/29 07:32:16;;;;;;;;;;;;;;;;;;4817395;29;19931;-85
2022/01/29 07:34:42;;;;;;;;;;;;;;;;;;4819170;29;19925;-85
2022/01/29 07:37:09;;;;;;;;;;;;;;;;;;4817969;29;19925;-85
2022/01/29 07:39:35;;;;;;;;;;;;;;;;;;4819793;29;19980;-86
2022/01/29 07:42:02;;;;;;;;;;;;;;;;;;4814953;29;19929;-86
2022/01/29 07:44:29;;;;;;;;;;;;;;;;;;4816108;29;20283;-85
2022/01/29 07:46:55;;;;;;;;;;;;;;;;;;4817211;29;20745;-85
2022/01/29 07:49:22;;;;;;;;;;;;;;;;;;4816811;29;19983;-86
2022/01/29 07:51:49;;;;;;;;;;;;;;;;;;4816297;29;20016;-85
2022/01/29 07:54:16;;;;;;;;;;;;;;;;;;4817135;29;20414;-86
2022/01/29 07:56:43;;;;;;;;;;;;;;;;;;4817962;29;19925;-86
2022/01/29 07:59:10;;;;;;;;;;;;;;;;;;4820038;29;20510;-84
2022/01/29 08:01:36;;;;;;;;;;;;;;;;;;4830824;29;20449;-84
2022/01/29 08:04:03;;;;;;;;;;;;;;;;;;4819883;29;20203;-86
2022/01/29 08:06:30;;;;;;;;;;;;;;;;;;4837639;29;19932;-85
2022/01/29 08:08:57;;;;;;;;;;;;;;;;;;4838197;29;20385;-86
2022/01/29 08:11:24;;;;;;;;;;;;;;;;;;4838091;29;19932;-87
2022/01/29 08:13:50;;;;;;;;;;;;;;;;;;4837665;29;19975;-86
2022/01/29 08:16:17;;;;;;;;;;;;;;;;;;4838512;29;19928;-85
2022/01/29 08:18:45;;;;;;;;;;;;;;;;;;4821538;29;19928;-85
2022/01/29 08:21:15;;;;;;;;;;;;;;;;;;4838124;29;19988;-84
2022/01/29 08:23:42;;;;;;;;;;;;;;;;;;4836206;29;20457;-85
2022/01/29 08:26:09;;;;;;;;;;;;;;;;;;4821023;29;20461;-84
2022/01/29 08:28:39;;;;;;;;;;;;;;;;;;4838527;29;20364;-83
2022/01/29 08:31:05;;;;;;;;;;;;;;;;;;4838647;29;19928;-85
2022/01/29 08:33:32;;;;;;;;;;;;;;;;;;4838671;29;19957;-84
2022/01/29 08:35:59;;;;;;;;;;;;;;;;;;4837885;29;20437;-83
2022/01/29 08:38:26;;;;;;;;;;;;;;;;;;4837929;29;20385;-85
2022/01/29 08:40:53;;;;;;;;;;;;;;;;;;4837846;29;19928;-84
2022/01/29 08:43:19;;;;;;;;;;;;;;;;;;4837654;29;19977;-85
2022/01/29 08:45:46;;;;;;;;;;;;;;;;;;4838098;29;20310;-85
2022/01/29 08:48:12;;;;;;;;;;;;;;;;;;4837286;29;19928;-86
2022/01/29 08:50:40;;;;;;;;;;;;;;;;;;4822185;29;19981;-85
2022/01/29 08:53:11;;;;;;;;;;;;;;;;;;4819119;29;20459;-85
2022/01/29 08:55:38;;;;;;;;;;;;;;;;;;4836803;29;19984;-85
2022/01/29 08:58:05;;;;;;;;;;;;;;;;;;4836460;29;19924;-86
2022/01/29 09:00:32;;;;;;;;;;;;;;;;;;4836689;29;20820;-85
2022/01/29 09:02:58;;;;;;;;;;;;;;;;;;4837925;29;20405;-86
2022/01/29 09:05:25;;;;;;;;;;;;;;;;;;4837140;29;19955;-85
2022/01/29 09:07:51;;;;;;;;;;;;;;;;;;4835439;29;20781;-86
2022/01/29 09:10:18;;;;;;;;;;;;;;;;;;4836868;29;19932;-84
2022/01/29 09:12:45;;;;;;;;;;;;;;;;;;4837212;29;19928;-85
2022/01/29 09:15:11;;;;;;;;;;;;;;;;;;4820330;29;19946;-86
2022/01/29 09:17:39;;;;;;;;;;;;;;;;;;4837848;29;19959;-85
2022/01/29 09:20:07;;;;;;;;;;;;;;;;;;4836897;29;19932;-86
2022/01/29 09:22:34;;;;;;;;;;;;;;;;;;4836406;29;19928;-86
2022/01/29 09:25:00;;;;;;;;;;;;;;;;;;4835903;29;19932;-85
2022/01/29 09:27:27;;;;;;;;;;;;;;;;;;4836354;29;19924;-85
2022/01/29 09:29:53;;;;;;;;;;;;;;;;;;4831389;29;20313;-84
2022/01/29 09:32:20;;;;;;;;;;;;;;;;;;4831315;29;19976;-83
2022/01/29 09:34:46;;;;;;;;;;;;;;;;;;4817926;29;19924;-84
2022/01/29 09:37:13;;;;;;;;;;;;;;;;;;4832196;29;20010;-84
2022/01/29 09:39:42;;;;;;;;;;;;;;;;;;4834410;29;19932;-85
2022/01/29 09:42:09;;;;;;;;;;;;;;;;;;4828095;29;19980;-85
2022/01/29 09:44:36;;;;;;;;;;;;;;;;;;4820451;29;19947;-85
2022/01/29 09:47:04;;;;;;;;;;;;;;;;;;4835077;29;19928;-83
2022/01/29 09:49:33;;;;;;;;;;;;;;;;;;4834548;29;19951;-83
2022/01/29 09:52:01;;;;;;;;;;;;;;;;;;4835335;29;19932;-83
2022/01/29 09:54:28;;;;;;;;;;;;;;;;;;4830695;29;19928;-83
2022/01/29 09:56:54;;;;;;;;;;;;;;;;;;4834261;29;20464;-83
2022/01/29 09:59:21;;;;;;;;;;;;;;;;;;4821079;29;19962;-83
2022/01/29 10:01:47;;;;;;;;;;;;;;;;;;4824137;29;19967;-83
2022/01/29 10:04:14;;;;;;;;;;;;;;;;;;4824953;29;20418;-82
2022/01/29 10:06:43;;;;;;;;;;;;;;;;;;4823491;29;19997;-84
2022/01/29 10:09:11;;;;;;;;;;;;;;;;;;4824715;29;19924;-83
2022/01/29 10:11:38;;;;;;;;;;;;;;;;;;4824835;29;19929;-84
2022/01/29 10:14:05;;;;;;;;;;;;;;;;;;4810381;29;19964;-84
2022/01/29 10:16:33;;;;;;;;;;;;;;;;;;4823223;29;19949;-85
2022/01/29 10:19:04;;;;;;;;;;;;;;;;;;4827096;29;19925;-84
2022/01/29 10:21:39;;;;;;;;;;;;;;;;;;4819138;29;19933;-84
2022/01/29 10:24:09;;;;;;;;;;;;;;;;;;4828202;29;19982;-83
2022/01/29 10:26:40;;;;;;;;;;;;;;;;;;4835151;29;19928;-84
2022/01/29 10:29:16;;;;;;;;;;;;;;;;;;4814962;29;19939;-85
2022/01/29 10:31:44;;;;;;;;;;;;;;;;;;4834723;29;19932;-85
2022/01/29 10:34:16;;;;;;;;;;;;;;;;;;4831455;29;19925;-84
2022/01/29 10:36:43;;;;;;;;;;;;;;;;;;4832391;29;20461;-85
2022/01/29 10:39:10;;;;;;;;;;;;;;;;;;4834552;29;20385;-84
2022/01/29 10:41:36;;;;;;;;;;;;;;;;;;4831681;29;19928;-84
2022/01/29 10:44:14;;;;;;;;;;;;;;;;;;4834329;29;19957;-85
2022/01/29 10:46:51;;;;;;;;;;;;;;;;;;4811477;29;19924;-85
2022/01/29 10:49:20;;;;;;;;;;;;;;;;;;4834871;29;20015;-86
2022/01/29 10:52:06;;;;;;;;;;;;;;;;;;4832326;29;19932;-84
2022/01/29 10:54:34;;;;;;;;;;;;;;;;;;4823838;29;19978;-85
2022/01/29 10:57:05;;;;;;;;;;;;;;;;;;4830187;29;20381;-84
2022/01/29 10:59:33;;;;;;;;;;;;;;;;;;4826357;29;19968;-85
2022/01/29 11:02:01;;;;;;;;;;;;;;;;;;4824773;29;19977;-85
2022/01/29 11:04:29;;;;;;;;;;;;;;;;;;4821966;29;19936;-86
2022/01/29 11:06:59;;;;;;;;;;;;;;;;;;4834036;29;19925;-85
2022/01/29 11:09:27;;;;;;;;;;;;;;;;;;4832892;29;19929;-85
2022/01/29 11:11:56;;;;;;;;;;;;;;;;;;4833359;29;20358;-85
2022/01/29 11:14:22;;;;;;;;;;;;;;;;;;4819826;29;19937;-85
2022/01/29 11:16:50;;;;;;;;;;;;;;;;;;4834786;29;20474;-85
2022/01/29 11:19:21;;;;;;;;;;;;;;;;;;4832437;29;19932;-86
2022/01/29 11:21:50;;;;;;;;;;;;;;;;;;4828897;29;19928;-84
2022/01/29 11:24:17;;;;;;;;;;;;;;;;;;4833660;29;19928;-85
2022/01/29 11:26:45;;;;;;;;;;;;;;;;;;4820928;29;19938;-85
2022/01/29 11:29:30;;;;;;;;;;;;;;;;;;4829692;29;19935;-85
2022/01/29 11:32:15;;;;;;;;;;;;;;;;;;4828551;29;19928;-86
2022/01/29 11:35:05;;;;;;;;;;;;;;;;;;4824519;29;19925;-85
2022/01/29 11:37:50;;;;;;;;;;;;;;;;;;4826464;29;20004;-85
2022/01/29 11:40:31;;;;;;;;;;;;;;;;;;4832872;29;19957;-87
2022/01/29 11:43:07;;;;;;;;;;;;;;;;;;4837181;29;19981;-87
2022/01/29 11:45:39;;;;;;;;;;;;;;;;;;4838272;29;19924;-87
2022/01/29 11:48:27;;;;;;;;;;;;;;;;;;4835036;29;20691;-88
2022/01/29 11:50:58;;;;;;;;;;;;;;;;;;4828871;29;20359;-87
2022/01/29 11:53:25;;;;;;;;;;;;;;;;;;4839802;29;19929;-87
2022/01/29 11:55:53;;;;;;;;;;;;;;;;;;4838850;29;19928;-88
2022/01/29 11:58:20;;;;;;;;;;;;;;;;;;4835462;29;19928;-88
2022/01/29 12:00:48;;;;;;;;;;;;;;;;;;4836199;29;19930;-88
2022/01/29 12:03:33;;;;;;;;;;;;;;;;;;4832698;29;19932;-88
2022/01/29 12:09:07;;;;;;;;;;;;;;;;;;4842464;29;20347;-86
2022/01/29 12:11:34;;;;;;;;;;;;;;;;;;4846577;29;19924;-86
2022/01/29 12:14:07;;;;;;;;;;;;;;;;;;4839800;29;20313;-87
2022/01/29 12:16:49;;;;;;;;;;;;;;;;;;4820211;29;19949;-87
2022/01/29 12:19:34;;;;;;;;;;;;;;;;;;4835259;29;19932;-88
2022/01/29 12:22:06;;;;;;;;;;;;;;;;;;4835583;29;20329;-87
2022/01/29 12:24:33;;;;;;;;;;;;;;;;;;4837545;29;20355;-86
2022/01/29 12:27:00;;;;;;;;;;;;;;;;;;4837138;29;20377;-87
2022/01/29 12:29:27;;;;;;;;;;;;;;;;;;4837622;29;19931;-87
2022/01/29 12:31:56;;;;;;;;;;;;;;;;;;4816074;29;19931;-87
2022/01/29 12:34:22;;;;;;;;;;;;;;;;;;4835368;29;19928;-86
2022/01/29 12:36:49;;;;;;;;;;;;;;;;;;4835483;29;19977;-87
2022/01/29 12:39:22;;;;;;;;;;;;;;;;;;4820759;29;19932;-87
2022/01/29 12:42:03;;;;;;;;;;;;;;;;;;4837678;29;19928;-88
2022/01/29 12:44:30;;;;;;;;;;;;;;;;;;4841404;29;20355;-86
2022/01/29 12:46:56;;;;;;;;;;;;;;;;;;4839108;29;19929;-88
2022/01/29 12:49:23;;;;;;;;;;;;;;;;;;4839075;29;19929;-87
2022/01/29 12:51:57;;;;;;;;;;;;;;;;;;4825470;29;20401;-86
2022/01/29 12:54:24;;;;;;;;;;;;;;;;;;4823086;29;19936;-87
2022/01/29 12:56:51;;;;;;;;;;;;;;;;;;4841279;29;19973;-87
2022/01/29 12:59:18;;;;;;;;;;;;;;;;;;4824704;29;19964;-88
2022/01/29 13:01:45;;;;;;;;;;;;;;;;;;4840918;29;19980;-87
2022/01/29 13:04:17;;;;;;;;;;;;;;;;;;4821990;29;19925;-87
2022/01/29 13:06:48;;;;;;;;;;;;;;;;;;4838641;29;20512;-87
2022/01/29 13:09:16;;;;;;;;;;;;;;;;;;4840326;29;20469;-87
2022/01/29 13:11:43;;;;;;;;;;;;;;;;;;4825209;29;19925;-86
2022/01/29 13:14:19;;;;;;;;;;;;;;;;;;4839083;29;19946;-84
2022/01/29 13:16:51;;;;;;;;;;;;;;;;;;4838748;29;19924;-85
2022/01/29 13:19:19;;;;;;;;;;;;;;;;;;4837772;29;19931;-86
2022/01/29 13:21:46;;;;;;;;;;;;;;;;;;4819237;29;20390;-86
2022/01/29 13:24:29;;;;;;;;;;;;;;;;;;4839289;29;20382;-86
2022/01/29 13:27:01;;;;;;;;;;;;;;;;;;4839886;29;19961;-88
2022/01/29 13:29:32;;;;;;;;;;;;;;;;;;4840090;29;20438;-88
2022/01/29 13:32:06;;;;;;;;;;;;;;;;;;4838206;29;19977;-88
2022/01/29 13:34:38;;;;;;;;;;;;;;;;;;4837998;29;20297;-87
2022/01/29 13:37:26;;;;;;;;;;;;;;;;;;4840141;29;19973;-86
2022/01/29 13:39:52;;;;;;;;;;;;;;;;;;4839577;29;19924;-86
2022/01/29 13:42:20;;;;;;;;;;;;;;;;;;4836750;29;20391;-87
2022/01/29 13:45:07;;;;;;;;;;;;;;;;;;4840756;29;19971;-87
2022/01/29 13:47:34;;;;;;;;;;;;;;;;;;4840137;29;20045;-88
2022/01/29 13:50:19;;;;;;;;;;;;;;;;;;4838483;29;20365;-87
2022/01/29 13:52:59;;;;;;;;;;;;;;;;;;4838949;29;20374;-88
2022/01/29 13:55:26;;;;;;;;;;;;;;;;;;4836854;29;20366;-86
2022/01/29 13:58:18;;;;;;;;;;;;;;;;;;4840245;29;19989;-87
2022/01/29 14:01:00;;;;;;;;;;;;;;;;;;4825016;29;19974;-87
2022/01/29 14:03:40;;;;;;;;;;;;;;;;;;4841667;29;19924;-87
2022/01/29 14:06:18;;;;;;;;;;;;;;;;;;4845306;29;20010;-86
2022/01/29 14:08:47;;;;;;;;;;;;;;;;;;4841579;29;19925;-86
2022/01/29 14:11:16;;;;;;;;;;;;;;;;;;4842215;29;20386;-85
2022/01/29 14:13:42;;;;;;;;;;;;;;;;;;4843935;29;19988;-88
2022/01/29 14:16:09;;;;;;;;;;;;;;;;;;4844603;29;19928;-86
2022/01/29 14:18:36;;;;;;;;;;;;;;;;;;4849517;29;19928;-85
2022/01/29 14:21:03;;;;;;;;;;;;;;;;;;4850578;29;19932;-87
2022/01/29 14:23:29;;;;;;;;;;;;;;;;;;4852263;29;19924;-87
2022/01/29 14:26:15;;;;;;;;;;;;;;;;;;4847796;29;19962;-89
2022/01/29 14:28:43;;;;;;;;;;;;;;;;;;4837702;29;19981;-95
2022/01/29 14:31:10;;;;;;;;;;;;;;;;;;4833353;29;20301;-86
2022/01/29 14:33:37;;;;;;;;;;;;;;;;;;4851784;29;20012;-88
2022/01/29 14:36:03;;;;;;;;;;;;;;;;;;4831664;29;19932;-89
2022/01/29 14:38:30;;;;;;;;;;;;;;;;;;4848540;29;19996;-90
2022/01/29 14:40:56;;;;;;;;;;;;;;;;;;4844944;29;20342;-90
2022/01/29 14:43:23;;;;;;;;;;;;;;;;;;4844928;29;19979;-90
2022/01/29 14:45:49;;;;;;;;;;;;;;;;;;4845192;29;19928;-92
2022/01/29 14:48:16;;;;;;;;;;;;;;;;;;4842100;29;19929;-93
2022/01/29 14:50:44;;;;;;;;;;;;;;;;;;4824899;29;19928;-91
2022/01/29 14:53:11;;;;;;;;;;;;;;;;;;4817924;29;19932;-89
2022/01/29 14:55:38;;;;;;;;;;;;;;;;;;4825692;29;19936;-87
2022/01/29 14:58:04;;;;;;;;;;;;;;;;;;4823764;29;19924;-85
2022/01/29 15:00:31;;;;;;;;;;;;;;;;;;4824652;29;19924;-91
2022/01/29 15:02:57;;;;;;;;;;;;;;;;;;4836361;29;20372;-89
2022/01/29 15:05:24;;;;;;;;;;;;;;;;;;4841255;29;19964;-88
2022/01/29 15:07:51;;;;;;;;;;;;;;;;;;4845518;29;19989;-89
2022/01/29 15:10:22;;;;;;;;;;;;;;;;;;4828763;29;19975;-86
2022/01/29 15:12:49;;;;;;;;;;;;;;;;;;4836316;29;20402;-87
2022/01/29 15:15:16;;;;;;;;;;;;;;;;;;4823571;29;19932;-87
2022/01/29 15:17:43;;;;;;;;;;;;;;;;;;4819002;29;19929;-88
2022/01/29 15:20:29;;;;;;;;;;;;;;;;;;4821666;29;20467;-87
2022/01/29 15:22:56;;;;;;;;;;;;;;;;;;4835096;29;19928;-87
2022/01/29 15:25:23;;;;;;;;;;;;;;;;;;4814576;29;19998;-86
2022/01/29 15:27:51;;;;;;;;;;;;;;;;;;4837839;29;19924;-89
2022/01/29 15:30:18;;;;;;;;;;;;;;;;;;4841419;29;20405;-90
2022/01/29 15:32:48;;;;;;;;;;;;;;;;;;4840673;29;19924;-90
2022/01/29 15:35:14;;;;;;;;;;;;;;;;;;4842807;29;19925;-87
2022/01/29 15:37:41;;;;;;;;;;;;;;;;;;4839762;29;19924;-80
2022/01/29 15:40:08;;;;;;;;;;;;;;;;;;4844506;29;19989;-86
2022/01/29 15:42:36;;;;;;;;;;;;;;;;;;4839482;29;20042;-87
2022/01/29 15:45:03;;;;;;;;;;;;;;;;;;4837207;29;19980;-85
2022/01/29 15:47:30;;;;;;;;;;;;;;;;;;4840807;29;19928;-89
2022/01/29 15:49:56;;;;;;;;;;;;;;;;;;4824791;29;19932;-88
2022/01/29 15:52:23;;;;;;;;;;;;;;;;;;4838515;29;20343;-87
2022/01/29 15:54:52;;;;;;;;;;;;;;;;;;4841828;29;20393;-87
2022/01/29 15:57:19;;;;;;;;;;;;;;;;;;4838562;29;19982;-86
2022/01/29 15:59:46;;;;;;;;;;;;;;;;;;4822835;29;19925;-88
2022/01/29 16:02:16;;;;;;;;;;;;;;;;;;4836701;29;20304;-88
2022/01/29 16:04:44;;;;;;;;;;;;;;;;;;4818046;29;19928;-90
2022/01/29 16:07:10;;;;;;;;;;;;;;;;;;4831834;29;19935;-88
2022/01/29 16:09:37;;;;;;;;;;;;;;;;;;4821375;29;19936;-91
2022/01/29 16:12:04;;;;;;;;;;;;;;;;;;4836215;29;20814;-91
2022/01/29 16:14:30;;;;;;;;;;;;;;;;;;4835717;29;19925;-87
2022/01/29 16:16:57;;;;;;;;;;;;;;;;;;4818312;29;19936;-87
2022/01/29 16:19:24;;;;;;;;;;;;;;;;;;4836049;29;19936;-88
2022/01/29 16:21:50;;;;;;;;;;;;;;;;;;4822508;29;19928;-87
2022/01/29 16:24:17;;;;;;;;;;;;;;;;;;4820841;29;19932;-87
2022/01/29 16:26:43;;;;;;;;;;;;;;;;;;4820567;29;19928;-87
2022/01/29 16:29:10;;;;;;;;;;;;;;;;;;4819627;29;19931;-87
2022/01/29 16:31:36;;;;;;;;;;;;;;;;;;4836322;29;20658;-88
2022/01/29 16:34:03;;;;;;;;;;;;;;;;;;4836338;29;19924;-87
2022/01/29 16:36:29;;;;;;;;;;;;;;;;;;4836606;29;19928;-86
2022/01/29 16:38:56;;;;;;;;;;;;;;;;;;4836734;29;19928;-86
2022/01/29 16:41:22;;;;;;;;;;;;;;;;;;4837204;29;19932;-87
2022/01/29 16:43:49;;;;;;;;;;;;;;;;;;4837115;29;20422;-87
2022/01/29 16:46:16;;;;;;;;;;;;;;;;;;4820525;29;19932;-87
2022/01/29 16:48:43;;;;;;;;;;;;;;;;;;4822347;29;19933;-86
2022/01/29 16:51:09;;;;;;;;;;;;;;;;;;4824300;29;20439;-87
2022/01/29 16:53:36;;;;;;;;;;;;;;;;;;4842139;29;19924;-87
2022/01/29 16:56:02;;;;;;;;;;;;;;;;;;4838980;29;19929;-87
2022/01/29 16:58:29;;;;;;;;;;;;;;;;;;4839064;29;19928;-87
2022/01/29 17:00:56;;;;;;;;;;;;;;;;;;4838568;29;19925;-87
2022/01/29 17:03:24;;;;;;;;;;;;;;;;;;4839781;29;19992;-88
2022/01/29 17:05:51;;;;;;;;;;;;;;;;;;4841481;29;19931;-88
2022/01/29 17:08:37;;;;;;;;;;;;;;;;;;4842650;29;20430;-89
2022/01/29 17:11:04;;;;;;;;;;;;;;;;;;4839662;29;19925;-88
2022/01/29 17:13:31;;;;;;;;;;;;;;;;;;4840288;29;20328;-88
2022/01/29 17:15:57;;;;;;;;;;;;;;;;;;4841096;29;19997;-89
2022/01/29 17:18:27;;;;;;;;;;;;;;;;;;4845484;29;19932;-87
2022/01/29 17:20:53;;;;;;;;;;;;;;;;;;4841891;29;19925;-86
2022/01/29 17:23:22;;;;;;;;;;;;;;;;;;4841457;29;19984;-84
2022/01/29 17:25:48;;;;;;;;;;;;;;;;;;4846609;29;19924;-85
2022/01/29 17:28:21;;;;;;;;;;;;;;;;;;4846189;29;19932;-86
2022/01/29 17:30:48;;;;;;;;;;;;;;;;;;4846932;29;19924;-86
2022/01/29 17:33:14;;;;;;;;;;;;;;;;;;4844921;29;19924;-86
2022/01/29 17:35:41;;;;;;;;;;;;;;;;;;4845494;29;19931;-87
2022/01/29 17:38:07;;;;;;;;;;;;;;;;;;4847099;29;19928;-86
2022/01/29 17:40:34;;;;;;;;;;;;;;;;;;4843353;29;19924;-87
2022/01/29 17:43:01;;;;;;;;;;;;;;;;;;4826931;29;19935;-88
2022/01/29 17:45:29;;;;;;;;;;;;;;;;;;4839635;29;19932;-87
2022/01/29 17:47:56;;;;;;;;;;;;;;;;;;4840630;29;20003;-85
2022/01/29 17:50:22;;;;;;;;;;;;;;;;;;4851629;29;19924;-88
2022/01/29 17:52:49;;;;;;;;;;;;;;;;;;4844681;29;19925;-88
2022/01/29 17:55:15;;;;;;;;;;;;;;;;;;4848260;29;19924;-88
2022/01/29 17:57:42;;;;;;;;;;;;;;;;;;4830914;29;19932;-86
2022/01/29 18:00:09;;;;;;;;;;;;;;;;;;4826458;29;19932;-86
2022/01/29 18:02:35;;;;;;;;;;;;;;;;;;4844233;29;19928;-86
2022/01/29 18:05:02;;;;;;;;;;;;;;;;;;4823713;29;19931;-86
2022/01/29 18:07:28;;;;;;;;;;;;;;;;;;4839567;29;19924;-87
2022/01/29 18:09:55;;;;;;;;;;;;;;;;;;4839041;29;20289;-87
2022/01/29 18:12:22;;;;;;;;;;;;;;;;;;4839109;29;19985;-85
2022/01/29 18:14:55;;;;;;;;;;;;;;;;;;4839322;29;19924;-87
2022/01/29 18:17:22;;;;;;;;;;;;;;;;;;4837848;29;19997;-87
2022/01/29 18:19:48;;;;;;;;;;;;;;;;;;4838846;29;19928;-86
2022/01/29 18:22:15;;;;;;;;;;;;;;;;;;4832998;29;19973;-87
2022/01/29 18:24:42;;;;;;;;;;;;;;;;;;4836482;29;19935;-86
2022/01/29 18:27:09;;;;;;;;;;;;;;;;;;4818938;29;19928;-88
2022/01/29 18:29:36;;;;;;;;;;;;;;;;;;4833294;29;19929;-86
2022/01/29 18:32:19;;;;;;;;;;;;;;;;;;4834415;29;19935;-85
2022/01/29 18:34:46;;;;;;;;;;;;;;;;;;4833279;29;19942;-85
2022/01/29 18:37:13;;;;;;;;;;;;;;;;;;4804121;29;19947;-87
2022/01/29 18:39:44;;;;;;;;;;;;;;;;;;4823647;29;20024;-88
2022/01/29 18:42:31;;;;;;;;;;;;;;;;;;4810786;29;20078;-88
2022/01/29 18:44:57;;;;;;;;;;;;;;;;;;4804973;29;19977;-87
2022/01/29 18:47:27;;;;;;;;;;;;;;;;;;4827971;29;20322;-86
2022/01/29 18:49:54;;;;;;;;;;;;;;;;;;4828233;29;19929;-88
2022/01/29 18:52:20;;;;;;;;;;;;;;;;;;4810218;29;20486;-86
2022/01/29 18:54:47;;;;;;;;;;;;;;;;;;4808243;29;19976;-87
2022/01/29 18:57:13;;;;;;;;;;;;;;;;;;4794357;29;19936;-86
2022/01/29 18:59:40;;;;;;;;;;;;;;;;;;4807329;29;19928;-88
2022/01/29 19:02:08;;;;;;;;;;;;;;;;;;4827993;29;19928;-89
2022/01/29 19:04:34;;;;;;;;;;;;;;;;;;4814132;29;19971;-89
2022/01/29 19:07:01;;;;;;;;;;;;;;;;;;4808446;29;19924;-88
2022/01/29 19:09:27;;;;;;;;;;;;;;;;;;4809872;29;19933;-88
2022/01/29 19:11:54;;;;;;;;;;;;;;;;;;4821757;29;20011;-88
2022/01/29 19:14:21;;;;;;;;;;;;;;;;;;4820294;29;19932;-87
2022/01/29 19:16:53;;;;;;;;;;;;;;;;;;4821539;29;20461;-87
2022/01/29 19:19:23;;;;;;;;;;;;;;;;;;4836078;29;19932;-86
2022/01/29 19:21:49;;;;;;;;;;;;;;;;;;4831070;29;19935;-87
2022/01/29 19:24:16;;;;;;;;;;;;;;;;;;4835523;29;19928;-86
2022/01/29 19:26:43;;;;;;;;;;;;;;;;;;4837148;29;20274;-88
2022/01/29 19:29:10;;;;;;;;;;;;;;;;;;4819110;29;19928;-86
2022/01/29 19:31:36;;;;;;;;;;;;;;;;;;4835023;29;19924;-86
2022/01/29 19:34:03;;;;;;;;;;;;;;;;;;4834523;29;19959;-86
2022/01/29 19:36:30;;;;;;;;;;;;;;;;;;4835343;29;19929;-86
2022/01/29 19:38:57;;;;;;;;;;;;;;;;;;4835387;29;19954;-88
2022/01/29 19:41:24;;;;;;;;;;;;;;;;;;4834974;29;20043;-86
2022/01/29 19:43:51;;;;;;;;;;;;;;;;;;4817840;29;20416;-89
2022/01/29 19:46:18;;;;;;;;;;;;;;;;;;4834186;29;20362;-87
2022/01/29 19:48:48;;;;;;;;;;;;;;;;;;4835663;29;19924;-88
2022/01/29 19:51:16;;;;;;;;;;;;;;;;;;4834139;29;20001;-88
2022/01/29 19:53:42;;;;;;;;;;;;;;;;;;4835669;29;20038;-87
2022/01/29 19:56:09;;;;;;;;;;;;;;;;;;4834600;29;20049;-86
2022/01/29 19:58:36;;;;;;;;;;;;;;;;;;4819243;29;20386;-86
2022/01/29 20:01:04;;;;;;;;;;;;;;;;;;4833308;29;19932;-86
2022/01/29 20:03:32;;;;;;;;;;;;;;;;;;4839556;29;19981;-86
2022/01/29 20:05:59;;;;;;;;;;;;;;;;;;4834748;29;20397;-86
2022/01/29 20:08:28;;;;;;;;;;;;;;;;;;4835496;29;19956;-88
2022/01/29 20:10:56;;;;;;;;;;;;;;;;;;4818650;29;19932;-88
2022/01/29 20:13:23;;;;;;;;;;;;;;;;;;4817722;29;19928;-86
2022/01/29 20:15:50;;;;;;;;;;;;;;;;;;4834724;29;19928;-85
2022/01/29 20:18:17;;;;;;;;;;;;;;;;;;4818444;29;20018;-86
2022/01/29 20:20:44;;;;;;;;;;;;;;;;;;4835048;29;19929;-87
2022/01/29 20:23:11;;;;;;;;;;;;;;;;;;4834955;29;20366;-88
2022/01/29 20:25:38;;;;;;;;;;;;;;;;;;4819293;29;20629;-89
2022/01/29 20:28:05;;;;;;;;;;;;;;;;;;4815681;29;20313;-89
2022/01/29 20:30:32;;;;;;;;;;;;;;;;;;4831875;29;20014;-88
2022/01/29 20:32:58;;;;;;;;;;;;;;;;;;4834528;29;20350;-88
2022/01/29 20:35:38;;;;;;;;;;;;;;;;;;4834804;29;20382;-87
2022/01/29 20:38:04;;;;;;;;;;;;;;;;;;4833706;29;19928;-85
2022/01/29 20:40:31;;;;;;;;;;;;;;;;;;4833730;29;19930;-87
2022/01/29 20:42:58;;;;;;;;;;;;;;;;;;4834331;29;19935;-87
2022/01/29 20:45:25;;;;;;;;;;;;;;;;;;4834917;29;19924;-87
2022/01/29 20:47:51;;;;;;;;;;;;;;;;;;4835000;29;20306;-86
2022/01/29 20:50:18;;;;;;;;;;;;;;;;;;4834997;29;20747;-86
2022/01/29 20:52:45;;;;;;;;;;;;;;;;;;4816842;29;19932;-88
2022/01/29 20:55:11;;;;;;;;;;;;;;;;;;4819392;29;19929;-89
2022/01/29 20:57:38;;;;;;;;;;;;;;;;;;4835121;29;19936;-89
2022/01/29 21:00:06;;;;;;;;;;;;;;;;;;4834324;29;19932;-88
2022/01/29 21:02:32;;;;;;;;;;;;;;;;;;4819350;29;19977;-90
2022/01/29 21:05:01;;;;;;;;;;;;;;;;;;4820533;29;20023;-89
2022/01/29 21:07:27;;;;;;;;;;;;;;;;;;4837925;29;19932;-89
2022/01/29 21:09:54;;;;;;;;;;;;;;;;;;4818024;29;20322;-88
2022/01/29 21:12:20;;;;;;;;;;;;;;;;;;4837370;29;19932;-84
2022/01/29 21:14:47;;;;;;;;;;;;;;;;;;4821788;29;19932;-86
2022/01/29 21:17:14;;;;;;;;;;;;;;;;;;4821522;29;19924;-86
2022/01/29 21:19:41;;;;;;;;;;;;;;;;;;4837787;29;19940;-87
2022/01/29 21:22:10;;;;;;;;;;;;;;;;;;4838110;29;19993;-88
2022/01/29 21:24:38;;;;;;;;;;;;;;;;;;4840013;29;20344;-85
2022/01/29 21:27:04;;;;;;;;;;;;;;;;;;4838341;29;19992;-84
2022/01/29 21:29:32;;;;;;;;;;;;;;;;;;4838586;29;19928;-85
2022/01/29 21:31:58;;;;;;;;;;;;;;;;;;4831299;29;19985;-87
2022/01/29 21:34:26;;;;;;;;;;;;;;;;;;4834226;29;20464;-85
2022/01/29 21:36:54;;;;;;;;;;;;;;;;;;4831195;29;20356;-85
2022/01/29 21:39:21;;;;;;;;;;;;;;;;;;4812594;29;20305;-87
2022/01/29 21:41:47;;;;;;;;;;;;;;;;;;4813786;29;20737;-87
2022/01/29 21:44:14;;;;;;;;;;;;;;;;;;4826026;29;20541;-87
2022/01/29 21:46:41;;;;;;;;;;;;;;;;;;4819249;29;19977;-86
2022/01/29 21:49:08;;;;;;;;;;;;;;;;;;4830293;29;20342;-87
2022/01/29 21:51:34;;;;;;;;;;;;;;;;;;4832803;29;20313;-88
2022/01/29 21:54:02;;;;;;;;;;;;;;;;;;4818641;29;20402;-88
2022/01/29 21:56:44;;;;;;;;;;;;;;;;;;4816250;29;20381;-87
2022/01/29 21:59:11;;;;;;;;;;;;;;;;;;4835544;29;19932;-86
2022/01/29 22:01:37;;;;;;;;;;;;;;;;;;4830563;29;19928;-87
2022/01/29 22:04:04;;;;;;;;;;;;;;;;;;4828723;29;19928;-88
2022/01/29 22:06:33;;;;;;;;;;;;;;;;;;4829978;29;19935;-88
2022/01/29 22:08:59;;;;;;;;;;;;;;;;;;4820159;29;19932;-87
2022/01/29 22:11:26;;;;;;;;;;;;;;;;;;4836268;29;19928;-86
2022/01/29 22:13:52;;;;;;;;;;;;;;;;;;4818712;29;20389;-87
2022/01/29 22:16:19;;;;;;;;;;;;;;;;;;4836477;29;20024;-88
2022/01/29 22:18:46;;;;;;;;;;;;;;;;;;4824200;29;20019;-89
2022/01/29 22:21:12;;;;;;;;;;;;;;;;;;4837685;29;19990;-88
2022/01/29 22:23:39;;;;;;;;;;;;;;;;;;4842538;29;19929;-89
2022/01/29 22:26:06;;;;;;;;;;;;;;;;;;4839634;29;19931;-90
2022/01/29 22:28:36;;;;;;;;;;;;;;;;;;4839229;29;19924;-88
2022/01/29 22:31:03;;;;;;;;;;;;;;;;;;4827153;29;19980;-89
2022/01/29 22:33:30;;;;;;;;;;;;;;;;;;4838907;29;20370;-88
2022/01/29 22:35:57;;;;;;;;;;;;;;;;;;4829244;29;19931;-88
2022/01/29 22:38:24;;;;;;;;;;;;;;;;;;4849529;29;19932;-88
2022/01/29 22:40:51;;;;;;;;;;;;;;;;;;4837885;29;19928;-88
2022/01/29 22:43:17;;;;;;;;;;;;;;;;;;4839548;29;19928;-88
2022/01/29 22:45:44;;;;;;;;;;;;;;;;;;4837247;29;19924;-88
2022/01/29 22:48:10;;;;;;;;;;;;;;;;;;4821379;29;20026;-89
2022/01/29 22:50:37;;;;;;;;;;;;;;;;;;4840410;29;19981;-89
2022/01/29 22:53:03;;;;;;;;;;;;;;;;;;4838646;29;19924;-86
2022/01/29 22:55:30;;;;;;;;;;;;;;;;;;4837795;29;19935;-88
2022/01/29 22:57:57;;;;;;;;;;;;;;;;;;4836654;29;19972;-88
2022/01/29 23:00:24;;;;;;;;;;;;;;;;;;4837558;29;19928;-89
2022/01/29 23:02:51;;;;;;;;;;;;;;;;;;4839414;29;19936;-87
2022/01/29 23:05:18;;;;;;;;;;;;;;;;;;4837801;29;19959;-89
2022/01/29 23:07:46;;;;;;;;;;;;;;;;;;4837617;29;19924;-88
2022/01/29 23:12:52;;;;;;;;;;;;;;;;;;4839867;29;19928;-89
2022/01/29 23:15:20;;;;;;;;;;;;;;;;;;4836813;29;20438;-89
2022/01/29 23:17:47;;;;;;;;;;;;;;;;;;4838525;29;19925;-87
2022/01/29 23:22:55;;;;;;;;;;;;;;;;;;4836333;29;20386;-89
2022/01/29 23:25:27;;;;;;;;;;;;;;;;;;4823865;29;19929;-89
2022/01/29 23:28:29;;;;;;;;;;;;;;;;;;4839436;29;20005;-88
2022/01/29 23:30:41;;;;;;;;;;;;;;;;;;4837114;29;20045;-88
2022/01/29 23:35:46;;;;;;;;;;;;;;;;;;4842427;29;19959;-87
2022/01/29 23:38:12;;;;;;;;;;;;;;;;;;4838710;29;19928;-88
2022/01/29 23:40:41;;;;;;;;;;;;;;;;;;4838196;29;19987;-88
2022/01/29 23:46:11;;;;;;;;;;;;;;;;;;4837728;29;20309;-89
2022/01/29 23:51:23;;;;;;;;;;;;;;;;;;4825637;29;19931;-89
2022/01/29 23:53:49;;;;;;;;;;;;;;;;;;4839648;29;19928;-89
2022/01/29 23:56:17;;;;;;;;;;;;;;;;;;4835749;29;20048;-89
2022/01/29 23:58:43;;;;;;;;;;;;;;;;;;4837499;29;19924;-88
